createdAt,value
2019-02-07T00:00:34.849Z,74.71
2019-02-07T00:01:34.819Z,74.60
2019-02-07T00:02:34.799Z,74.71
2019-02-07T00:03:34.792Z,74.80
2019-02-07T00:04:34.782Z,74.19
2019-02-07T00:05:34.795Z,74.71
2019-02-07T00:06:34.783Z,75.32
2019-02-07T00:07:34.751Z,75.53
2019-02-07T00:08:34.732Z,74.60
2019-02-07T00:09:34.719Z,74.71
2019-02-07T00:10:34.722Z,74.71
2019-02-07T00:11:34.731Z,74.91
2019-02-07T00:12:34.691Z,75.32
2019-02-07T00:13:34.683Z,74.80
2019-02-07T00:14:39.826Z,75.32
2019-02-07T00:15:36.646Z,75.01
2019-02-07T00:16:34.794Z,75.53
2019-02-07T00:17:34.684Z,75.12
2019-02-07T00:18:34.633Z,74.71
2019-02-07T00:19:34.614Z,76.87
2019-02-07T00:20:34.598Z,74.91
2019-02-07T00:21:34.615Z,74.08
2019-02-07T00:22:34.578Z,75.43
2019-02-07T00:23:34.578Z,74.77
2019-02-07T00:24:42.598Z,73.78
2019-02-07T00:25:35.542Z,73.33
2019-02-07T00:26:34.561Z,73.74
2019-02-07T00:27:34.526Z,73.64
2019-02-07T00:28:34.518Z,73.78
2019-02-07T00:29:34.504Z,73.74
2019-02-07T00:30:34.491Z,74.08
2019-02-07T00:31:34.501Z,74.80
2019-02-07T00:32:34.479Z,75.22
2019-02-07T00:33:34.453Z,74.29
2019-02-07T00:34:34.445Z,74.71
2019-02-07T00:35:34.434Z,74.29
2019-02-07T00:36:34.496Z,74.08
2019-02-07T00:37:34.415Z,74.19
2019-02-07T00:38:34.404Z,73.78
2019-02-07T00:39:34.396Z,74.19
2019-02-07T00:40:34.376Z,73.57
2019-02-07T00:41:34.404Z,74.02
2019-02-07T00:42:34.388Z,74.43
2019-02-07T00:43:34.341Z,73.78
2019-02-07T00:44:34.333Z,73.88
2019-02-07T00:45:34.320Z,73.57
2019-02-07T00:46:34.329Z,73.68
2019-02-07T00:47:34.323Z,74.19
2019-02-07T00:48:34.306Z,73.57
2019-02-07T00:49:34.279Z,73.57
2019-02-07T00:50:34.271Z,73.68
2019-02-07T00:51:34.251Z,73.57
2019-02-07T00:52:34.276Z,73.47
2019-02-07T00:53:34.229Z,72.96
2019-02-07T00:54:34.226Z,72.44
2019-02-07T00:55:34.207Z,72.75
2019-02-07T00:56:34.204Z,72.64
2019-02-07T00:57:34.198Z,72.44
2019-02-07T00:58:34.205Z,72.64
2019-02-07T00:59:34.171Z,72.44
2019-02-07T01:00:34.149Z,72.85
2019-02-07T01:01:34.140Z,72.33
2019-02-07T01:02:34.132Z,72.64
2019-02-07T01:03:34.145Z,71.82
2019-02-07T01:04:34.109Z,72.37
2019-02-07T01:05:34.098Z,72.44
2019-02-07T01:06:34.089Z,72.44
2019-02-07T01:07:34.072Z,72.23
2019-02-07T01:08:34.088Z,72.13
2019-02-07T01:09:34.051Z,71.82
2019-02-07T01:10:34.044Z,72.13
2019-02-07T01:11:34.027Z,72.23
2019-02-07T01:12:34.018Z,71.72
2019-02-07T01:13:34.046Z,72.13
2019-02-07T01:14:33.995Z,71.92
2019-02-07T01:15:33.983Z,71.92
2019-02-07T01:16:33.976Z,71.82
2019-02-07T01:17:33.963Z,71.72
2019-02-07T01:18:33.976Z,71.30
2019-02-07T01:19:33.938Z,70.92
2019-02-07T01:20:33.928Z,70.89
2019-02-07T01:21:33.927Z,71.41
2019-02-07T01:22:33.918Z,70.89
2019-02-07T01:23:33.920Z,71.10
2019-02-07T01:24:33.896Z,70.28
2019-02-07T01:25:33.893Z,70.72
2019-02-07T01:26:33.882Z,70.68
2019-02-07T01:27:33.851Z,70.28
2019-02-07T01:28:33.862Z,70.68
2019-02-07T01:29:33.833Z,70.17
2019-02-07T01:30:33.826Z,70.48
2019-02-07T01:31:33.810Z,70.37
2019-02-07T01:32:33.794Z,70.48
2019-02-07T01:33:33.810Z,69.76
2019-02-07T01:34:33.774Z,70.58
2019-02-07T01:35:33.765Z,70.37
2019-02-07T01:36:33.755Z,69.65
2019-02-07T01:37:33.749Z,69.86
2019-02-07T01:38:33.757Z,69.86
2019-02-07T01:39:33.756Z,69.89
2019-02-07T01:40:33.704Z,69.24
2019-02-07T01:41:33.699Z,69.14
2019-02-07T01:42:33.688Z,69.96
2019-02-07T01:43:33.672Z,68.73
2019-02-07T01:44:33.688Z,68.73
2019-02-07T01:45:33.653Z,68.76
2019-02-07T01:46:33.649Z,69.27
2019-02-07T01:47:33.627Z,69.69
2019-02-07T01:48:33.618Z,69.86
2019-02-07T01:49:33.639Z,69.86
2019-02-07T01:50:33.598Z,69.55
2019-02-07T01:51:33.583Z,69.69
2019-02-07T01:52:33.572Z,70.37
2019-02-07T01:53:33.559Z,69.76
2019-02-07T01:54:33.575Z,69.79
2019-02-07T01:55:33.563Z,68.86
2019-02-07T01:56:33.525Z,69.07
2019-02-07T01:57:33.522Z,70.00
2019-02-07T01:58:33.503Z,69.07
2019-02-07T01:59:33.504Z,70.07
2019-02-07T02:00:33.514Z,70.07
2019-02-07T02:01:33.469Z,70.37
2019-02-07T02:02:33.461Z,70.41
2019-02-07T02:03:33.449Z,71.10
2019-02-07T02:04:33.448Z,71.44
2019-02-07T02:05:33.455Z,71.44
2019-02-07T02:06:33.414Z,71.55
2019-02-07T02:07:33.420Z,71.68
2019-02-07T02:08:33.408Z,71.78
2019-02-07T02:09:33.390Z,72.09
2019-02-07T02:10:33.400Z,72.19
2019-02-07T02:11:33.367Z,73.74
2019-02-07T02:12:33.367Z,73.54
2019-02-07T02:13:33.343Z,73.74
2019-02-07T02:14:33.339Z,73.57
2019-02-07T02:15:33.344Z,73.43
2019-02-07T02:16:34.102Z,73.68
2019-02-07T02:17:33.298Z,74.91
2019-02-07T02:18:33.283Z,74.19
2019-02-07T02:19:33.274Z,74.50
2019-02-07T02:20:33.410Z,75.22
2019-02-07T02:21:33.247Z,75.01
2019-02-07T02:22:33.237Z,74.60
2019-02-07T02:23:33.226Z,75.87
2019-02-07T02:24:33.218Z,76.18
2019-02-07T02:25:33.231Z,76.04
2019-02-07T02:26:33.191Z,76.39
2019-02-07T02:27:33.181Z,76.39
2019-02-07T02:28:33.172Z,76.50
2019-02-07T02:29:33.159Z,77.22
2019-02-07T02:30:33.146Z,77.42
2019-02-07T02:31:33.159Z,76.81
2019-02-07T02:32:33.122Z,77.46
2019-02-07T02:33:33.123Z,77.32
2019-02-07T02:34:33.099Z,77.36
2019-02-07T02:35:33.096Z,77.63
2019-02-07T02:36:33.102Z,78.08
2019-02-07T02:37:33.064Z,78.59
2019-02-07T02:38:33.065Z,78.49
2019-02-07T02:39:33.042Z,78.70
2019-02-07T02:40:33.030Z,78.59
2019-02-07T02:41:33.051Z,79.42
2019-02-07T02:42:33.014Z,79.01
2019-02-07T02:43:33.002Z,80.15
2019-02-07T02:44:32.995Z,80.08
2019-02-07T02:45:37.657Z,80.39
2019-02-07T02:46:33.992Z,80.90
2019-02-07T02:47:32.953Z,80.18
2019-02-07T02:48:32.944Z,80.90
2019-02-07T02:49:32.935Z,80.49
2019-02-07T02:50:32.918Z,81.73
2019-02-07T02:51:32.907Z,81.63
2019-02-07T02:52:32.926Z,81.73
2019-02-07T02:53:32.890Z,81.73
2019-02-07T02:54:32.877Z,81.42
2019-02-07T02:55:32.865Z,81.77
2019-02-07T02:56:32.899Z,81.87
2019-02-07T02:57:32.839Z,81.67
2019-02-07T02:58:32.832Z,81.77
2019-02-07T02:59:32.829Z,82.04
2019-02-07T03:00:32.805Z,81.98
2019-02-07T03:01:32.802Z,82.29
2019-02-07T03:02:32.803Z,82.18
2019-02-07T03:03:32.772Z,82.29
2019-02-07T03:04:32.761Z,82.50
2019-02-07T03:05:32.749Z,83.18
2019-02-07T03:06:32.743Z,82.97
2019-02-07T03:07:32.752Z,83.28
2019-02-07T03:08:32.725Z,84.25
2019-02-07T03:09:34.641Z,83.84
2019-02-07T03:10:32.694Z,83.73
2019-02-07T03:11:32.683Z,83.94
2019-02-07T03:12:32.706Z,84.05
2019-02-07T03:13:32.658Z,83.73
2019-02-07T03:14:32.654Z,84.66
2019-02-07T03:15:32.641Z,83.84
2019-02-07T03:16:32.624Z,84.25
2019-02-07T03:17:32.640Z,84.05
2019-02-07T03:18:32.608Z,84.56
2019-02-07T03:19:32.593Z,84.25
2019-02-07T03:20:32.584Z,84.83
2019-02-07T03:21:32.566Z,84.25
2019-02-07T03:22:32.606Z,84.56
2019-02-07T03:23:32.570Z,85.04
2019-02-07T03:24:32.531Z,84.77
2019-02-07T03:25:32.519Z,85.28
2019-02-07T03:26:32.511Z,85.28
2019-02-07T03:27:32.499Z,85.18
2019-02-07T03:28:32.509Z,84.97
2019-02-07T03:29:32.478Z,85.49
2019-02-07T03:30:32.480Z,85.91
2019-02-07T03:31:32.454Z,86.01
2019-02-07T03:32:32.514Z,85.49
2019-02-07T03:33:32.481Z,86.01
2019-02-07T03:34:32.429Z,86.11
2019-02-07T03:35:32.406Z,85.80
2019-02-07T03:36:32.405Z,86.21
2019-02-07T03:37:32.399Z,86.32
2019-02-07T03:38:32.374Z,86.73
2019-02-07T03:39:32.401Z,85.91
2019-02-07T03:40:32.356Z,86.83
2019-02-07T03:41:32.343Z,86.21
2019-02-07T03:42:32.346Z,86.52
2019-02-07T03:43:32.357Z,86.73
2019-02-07T03:44:32.305Z,87.04
2019-02-07T03:45:32.295Z,86.11
2019-02-07T03:46:32.292Z,86.94
2019-02-07T03:47:32.284Z,86.83
2019-02-07T03:48:32.282Z,87.04
2019-02-07T03:49:32.278Z,87.15
2019-02-07T03:50:32.237Z,87.04
2019-02-07T03:51:32.228Z,86.73
2019-02-07T03:52:32.214Z,87.15
2019-02-07T03:53:32.206Z,87.15
2019-02-07T03:54:32.215Z,86.73
2019-02-07T03:55:32.188Z,87.10
2019-02-07T03:56:32.172Z,86.94
2019-02-07T03:57:32.160Z,87.04
2019-02-07T03:58:32.159Z,87.25
2019-02-07T03:59:32.159Z,86.73
2019-02-07T04:00:32.124Z,86.83
2019-02-07T04:01:32.117Z,86.73
2019-02-07T04:02:32.101Z,86.73
2019-02-07T04:03:32.091Z,86.83
2019-02-07T04:04:32.109Z,87.15
2019-02-07T04:05:32.070Z,86.94
2019-02-07T04:06:32.059Z,86.63
2019-02-07T04:07:32.045Z,86.94
2019-02-07T04:08:32.037Z,86.52
2019-02-07T04:09:32.053Z,86.83
2019-02-07T04:10:32.037Z,86.73
2019-02-07T04:11:32.001Z,86.52
2019-02-07T04:12:31.993Z,86.90
2019-02-07T04:13:31.984Z,87.15
2019-02-07T04:14:31.991Z,86.32
2019-02-07T04:15:31.986Z,86.49
2019-02-07T04:16:32.348Z,86.73
2019-02-07T04:17:31.947Z,86.79
2019-02-07T04:18:31.925Z,86.94
2019-02-07T04:19:31.910Z,86.11
2019-02-07T04:20:31.946Z,86.90
2019-02-07T04:21:31.888Z,86.83
2019-02-07T04:22:31.882Z,86.18
2019-02-07T04:23:31.887Z,86.28
2019-02-07T04:24:31.854Z,86.49
2019-02-07T04:25:31.867Z,86.83
2019-02-07T04:26:31.835Z,86.32
2019-02-07T04:27:31.831Z,86.38
2019-02-07T04:28:31.827Z,86.28
2019-02-07T04:29:31.797Z,86.28
2019-02-07T04:30:31.822Z,86.69
2019-02-07T04:31:31.785Z,86.49
2019-02-07T04:32:31.765Z,86.59
2019-02-07T04:33:31.771Z,87.00
2019-02-07T04:34:31.746Z,86.73
2019-02-07T04:35:31.771Z,86.28
2019-02-07T04:36:31.719Z,86.49
2019-02-07T04:37:31.722Z,86.59
2019-02-07T04:38:31.706Z,86.69
2019-02-07T04:39:31.693Z,86.83
2019-02-07T04:40:31.712Z,87.00
2019-02-07T04:41:31.659Z,86.90
2019-02-07T04:42:31.650Z,86.90
2019-02-07T04:43:31.641Z,86.90
2019-02-07T04:44:31.635Z,87.10
2019-02-07T04:45:31.619Z,87.21
2019-02-07T04:46:31.654Z,85.97
2019-02-07T04:47:31.601Z,87.00
2019-02-07T04:48:31.614Z,86.28
2019-02-07T04:49:31.582Z,86.18
2019-02-07T04:50:31.578Z,85.86
2019-02-07T04:51:31.560Z,86.18
2019-02-07T04:52:31.570Z,85.97
2019-02-07T04:53:31.529Z,86.07
2019-02-07T04:54:31.523Z,86.49
2019-02-07T04:55:31.510Z,86.07
2019-02-07T04:56:31.527Z,86.59
2019-02-07T04:57:31.526Z,85.97
2019-02-07T04:58:31.476Z,85.66
2019-02-07T04:59:31.468Z,85.66
2019-02-07T05:00:31.455Z,85.66
2019-02-07T05:01:31.476Z,85.24
2019-02-07T05:02:31.432Z,86.07
2019-02-07T05:03:31.427Z,85.35
2019-02-07T05:04:31.438Z,85.04
2019-02-07T05:05:31.404Z,85.55
2019-02-07T05:06:31.424Z,85.45
2019-02-07T05:07:31.410Z,85.45
2019-02-07T05:08:31.392Z,85.35
2019-02-07T05:09:31.382Z,85.35
2019-02-07T05:10:31.340Z,85.45
2019-02-07T05:11:31.334Z,85.52
2019-02-07T05:12:31.346Z,85.52
2019-02-07T05:13:31.307Z,85.21
2019-02-07T05:14:31.299Z,85.21
2019-02-07T05:15:31.287Z,84.89
2019-02-07T05:16:39.151Z,84.52
2019-02-07T05:17:32.282Z,84.48
2019-02-07T05:18:31.252Z,84.79
2019-02-07T05:19:31.238Z,85.21
2019-02-07T05:20:31.226Z,84.89
2019-02-07T05:21:31.245Z,84.07
2019-02-07T05:22:31.204Z,84.48
2019-02-07T05:23:31.225Z,84.38
2019-02-07T05:24:31.212Z,84.48
2019-02-07T05:25:31.168Z,83.86
2019-02-07T05:26:31.159Z,84.48
2019-02-07T05:27:31.152Z,83.76
2019-02-07T05:28:31.158Z,83.86
2019-02-07T05:29:31.123Z,84.07
2019-02-07T05:30:31.110Z,84.28
2019-02-07T05:31:31.103Z,84.28
2019-02-07T05:32:31.095Z,84.17
2019-02-07T05:33:31.112Z,84.07
2019-02-07T05:34:31.090Z,84.07
2019-02-07T05:35:31.055Z,83.76
2019-02-07T05:36:31.048Z,83.65
2019-02-07T05:37:31.035Z,83.86
2019-02-07T05:38:31.044Z,83.93
2019-02-07T05:39:31.106Z,84.07
2019-02-07T05:40:31.000Z,83.55
2019-02-07T05:41:31.033Z,83.97
2019-02-07T05:42:31.006Z,83.97
2019-02-07T05:43:30.970Z,82.73
2019-02-07T05:44:30.990Z,83.65
2019-02-07T05:45:30.943Z,83.25
2019-02-07T05:46:30.936Z,82.79
2019-02-07T05:47:30.935Z,82.73
2019-02-07T05:48:30.912Z,83.62
2019-02-07T05:49:30.914Z,84.17
2019-02-07T05:50:30.922Z,83.86
2019-02-07T05:51:30.910Z,83.55
2019-02-07T05:52:30.867Z,83.10
2019-02-07T05:53:30.861Z,83.10
2019-02-07T05:54:30.859Z,83.86
2019-02-07T05:55:30.873Z,82.62
2019-02-07T05:56:30.829Z,82.48
2019-02-07T05:57:30.814Z,82.59
2019-02-07T05:58:30.804Z,83.10
2019-02-07T05:59:30.809Z,82.83
2019-02-07T06:00:30.776Z,82.79
2019-02-07T06:01:30.802Z,82.48
2019-02-07T06:02:30.755Z,82.48
2019-02-07T06:03:30.741Z,82.59
2019-02-07T06:04:30.737Z,83.10
2019-02-07T06:05:30.742Z,82.89
2019-02-07T06:06:30.713Z,83.51
2019-02-07T06:07:30.693Z,83.62
2019-02-07T06:08:30.683Z,83.10
2019-02-07T06:09:30.679Z,83.10
2019-02-07T06:10:30.697Z,82.89
2019-02-07T06:11:30.680Z,83.51
2019-02-07T06:12:30.640Z,83.72
2019-02-07T06:13:30.626Z,83.10
2019-02-07T06:14:30.614Z,83.31
2019-02-07T06:15:30.634Z,83.51
2019-02-07T06:16:30.595Z,83.72
2019-02-07T06:17:30.578Z,83.68
2019-02-07T06:18:30.570Z,83.72
2019-02-07T06:19:30.561Z,83.51
2019-02-07T06:20:30.569Z,84.13
2019-02-07T06:21:30.594Z,83.51
2019-02-07T06:22:30.539Z,83.27
2019-02-07T06:23:30.513Z,83.62
2019-02-07T06:24:30.512Z,83.93
2019-02-07T06:25:30.500Z,83.78
2019-02-07T06:26:30.507Z,83.68
2019-02-07T06:27:30.492Z,83.99
2019-02-07T06:28:30.455Z,84.23
2019-02-07T06:29:30.444Z,83.78
2019-02-07T06:30:30.431Z,84.09
2019-02-07T06:31:30.453Z,84.23
2019-02-07T06:32:30.419Z,84.20
2019-02-07T06:33:30.408Z,84.20
2019-02-07T06:34:30.393Z,84.41
2019-02-07T06:35:30.377Z,83.99
2019-02-07T06:36:30.396Z,84.09
2019-02-07T06:37:30.362Z,84.30
2019-02-07T06:38:30.348Z,84.30
2019-02-07T06:39:30.333Z,84.09
2019-02-07T06:40:30.370Z,83.99
2019-02-07T06:41:30.308Z,84.30
2019-02-07T06:42:30.304Z,84.09
2019-02-07T06:43:30.296Z,84.30
2019-02-07T06:44:30.281Z,84.20
2019-02-07T06:45:30.355Z,83.89
2019-02-07T06:46:30.298Z,84.30
2019-02-07T06:47:30.273Z,84.41
2019-02-07T06:48:30.238Z,84.30
2019-02-07T06:49:30.227Z,84.20
2019-02-07T06:50:30.223Z,83.89
2019-02-07T06:51:30.194Z,83.78
2019-02-07T06:52:30.242Z,84.20
2019-02-07T06:53:30.171Z,83.78
2019-02-07T06:54:30.161Z,83.89
2019-02-07T06:55:30.161Z,83.68
2019-02-07T06:56:30.149Z,84.09
2019-02-07T06:57:30.152Z,83.58
2019-02-07T06:58:30.124Z,83.89
2019-02-07T06:59:30.158Z,84.06
2019-02-07T07:00:30.089Z,83.54
2019-02-07T07:01:30.101Z,83.44
2019-02-07T07:02:30.099Z,83.85
2019-02-07T07:03:30.061Z,83.95
2019-02-07T07:04:30.047Z,83.54
2019-02-07T07:05:30.033Z,83.85
2019-02-07T07:06:30.025Z,83.44
2019-02-07T07:07:30.034Z,82.40
2019-02-07T07:08:30.032Z,82.71
2019-02-07T07:09:29.989Z,82.71
2019-02-07T07:10:29.980Z,83.44
2019-02-07T07:11:29.978Z,82.82
2019-02-07T07:12:29.953Z,83.13
2019-02-07T07:13:29.967Z,83.54
2019-02-07T07:14:29.931Z,83.64
2019-02-07T07:15:29.924Z,83.54
2019-02-07T07:16:29.912Z,82.61
2019-02-07T07:17:29.910Z,82.82
2019-02-07T07:18:29.913Z,83.44
2019-02-07T07:19:29.896Z,83.64
2019-02-07T07:20:29.874Z,82.92
2019-02-07T07:21:29.869Z,83.44
2019-02-07T07:22:29.846Z,83.95
2019-02-07T07:23:29.856Z,83.64
2019-02-07T07:24:29.819Z,82.92
2019-02-07T07:25:29.809Z,83.64
2019-02-07T07:26:29.807Z,82.51
2019-02-07T07:27:29.787Z,82.51
2019-02-07T07:28:29.797Z,82.82
2019-02-07T07:29:29.771Z,83.03
2019-02-07T07:30:29.755Z,83.03
2019-02-07T07:31:29.741Z,82.40
2019-02-07T07:32:29.731Z,82.40
2019-02-07T07:33:29.754Z,82.30
2019-02-07T07:34:29.732Z,82.10
2019-02-07T07:35:29.696Z,82.10
2019-02-07T07:36:29.690Z,82.10
2019-02-07T07:37:29.680Z,82.10
2019-02-07T07:38:29.705Z,81.99
2019-02-07T07:39:29.658Z,82.10
2019-02-07T07:40:29.644Z,81.99
2019-02-07T07:41:29.638Z,82.30
2019-02-07T07:42:29.625Z,81.89
2019-02-07T07:43:30.490Z,81.79
2019-02-07T07:44:29.632Z,81.48
2019-02-07T07:45:29.594Z,81.48
2019-02-07T07:46:29.582Z,81.54
2019-02-07T07:47:36.016Z,81.37
2019-02-07T07:48:29.582Z,81.99
2019-02-07T07:49:29.575Z,81.54
2019-02-07T07:50:29.538Z,81.85
2019-02-07T07:51:29.576Z,81.54
2019-02-07T07:52:29.523Z,81.85
2019-02-07T07:53:29.527Z,82.57
2019-02-07T07:54:29.520Z,82.06
2019-02-07T07:55:29.477Z,82.78
2019-02-07T07:56:29.488Z,82.37
2019-02-07T07:57:29.455Z,82.16
2019-02-07T07:58:29.482Z,82.68
2019-02-07T07:59:29.472Z,82.47
2019-02-07T08:00:29.427Z,82.71
2019-02-07T08:01:29.410Z,83.61
2019-02-07T08:02:29.412Z,82.89
2019-02-07T08:03:29.387Z,83.81
2019-02-07T08:04:29.403Z,83.50
2019-02-07T08:05:29.377Z,83.64
2019-02-07T08:06:29.360Z,83.91
2019-02-07T08:07:29.348Z,84.12
2019-02-07T08:08:29.337Z,84.22
2019-02-07T08:09:29.320Z,84.74
2019-02-07T08:10:29.336Z,84.78
2019-02-07T08:11:29.303Z,84.01
2019-02-07T08:12:29.318Z,84.27
2019-02-07T08:13:29.280Z,84.36
2019-02-07T08:14:29.279Z,84.47
2019-02-07T08:15:29.278Z,84.94
2019-02-07T08:16:29.259Z,84.57
2019-02-07T08:17:29.235Z,84.88
2019-02-07T08:18:29.225Z,85.15
2019-02-07T08:19:29.214Z,84.94
2019-02-07T08:20:29.245Z,85.15
2019-02-07T08:21:29.187Z,84.64
2019-02-07T08:22:29.184Z,84.53
2019-02-07T08:23:29.166Z,84.53
2019-02-07T08:24:29.154Z,84.01
2019-02-07T08:25:29.184Z,84.64
2019-02-07T08:26:29.145Z,84.33
2019-02-07T08:27:29.151Z,84.84
2019-02-07T08:28:29.111Z,84.01
2019-02-07T08:29:29.127Z,84.64
2019-02-07T08:30:36.179Z,84.22
2019-02-07T08:31:30.079Z,84.49
2019-02-07T08:32:29.155Z,84.49
2019-02-07T08:33:29.057Z,84.53
2019-02-07T08:34:29.068Z,84.74
2019-02-07T08:35:29.030Z,84.59
2019-02-07T08:36:29.206Z,84.64
2019-02-07T08:37:29.037Z,84.59
2019-02-07T08:38:28.997Z,84.91
2019-02-07T08:39:28.993Z,84.94
2019-02-07T08:40:29.037Z,84.80
2019-02-07T08:41:28.980Z,84.59
2019-02-07T08:42:28.997Z,84.91
2019-02-07T08:43:28.946Z,85.46
2019-02-07T08:44:28.938Z,84.70
2019-02-07T08:45:28.924Z,84.91
2019-02-07T08:46:28.952Z,84.59
2019-02-07T08:47:28.951Z,84.80
2019-02-07T08:48:28.886Z,85.11
2019-02-07T08:49:28.877Z,85.57
2019-02-07T08:50:28.864Z,85.83
2019-02-07T08:51:28.852Z,86.24
2019-02-07T08:52:28.884Z,86.70
2019-02-07T08:53:28.832Z,86.76
2019-02-07T08:54:28.832Z,86.66
2019-02-07T08:55:28.807Z,86.45
2019-02-07T08:56:28.800Z,86.08
2019-02-07T08:57:28.806Z,86.39
2019-02-07T08:58:28.819Z,86.55
2019-02-07T08:59:28.770Z,86.97
2019-02-07T09:00:28.755Z,86.66
2019-02-07T09:01:28.761Z,86.76
2019-02-07T09:02:28.735Z,86.66
2019-02-07T09:03:28.743Z,86.70
2019-02-07T09:04:28.814Z,86.49
2019-02-07T09:05:28.695Z,86.70
2019-02-07T09:06:28.705Z,86.29
2019-02-07T09:07:28.674Z,86.04
2019-02-07T09:08:28.701Z,86.80
2019-02-07T09:09:28.651Z,86.08
2019-02-07T09:10:28.647Z,86.04
2019-02-07T09:11:28.631Z,86.15
2019-02-07T09:12:28.620Z,85.94
2019-02-07T09:13:28.632Z,86.04
2019-02-07T09:14:28.595Z,86.76
2019-02-07T09:15:28.584Z,86.35
2019-02-07T09:16:28.575Z,85.63
2019-02-07T09:17:28.572Z,85.63
2019-02-07T09:18:28.579Z,85.69
2019-02-07T09:19:28.537Z,85.38
2019-02-07T09:20:28.540Z,85.31
2019-02-07T09:21:28.518Z,85.22
2019-02-07T09:22:28.507Z,85.22
2019-02-07T09:23:28.520Z,85.49
2019-02-07T09:24:28.489Z,85.28
2019-02-07T09:25:28.479Z,85.42
2019-02-07T09:26:28.466Z,85.11
2019-02-07T09:27:28.453Z,85.63
2019-02-07T09:28:28.470Z,85.11
2019-02-07T09:29:28.430Z,84.91
2019-02-07T09:30:28.418Z,85.11
2019-02-07T09:31:28.409Z,85.28
2019-02-07T09:32:28.397Z,84.56
2019-02-07T09:33:28.383Z,85.07
2019-02-07T09:34:28.400Z,85.07
2019-02-07T09:35:28.366Z,84.97
2019-02-07T09:36:28.351Z,84.97
2019-02-07T09:37:28.338Z,84.83
2019-02-07T09:38:28.328Z,84.77
2019-02-07T09:39:28.357Z,84.93
2019-02-07T09:40:28.301Z,84.72
2019-02-07T09:41:28.292Z,83.90
2019-02-07T09:42:28.286Z,83.80
2019-02-07T09:43:28.278Z,84.62
2019-02-07T09:44:28.278Z,84.62
2019-02-07T09:45:28.243Z,84.31
2019-02-07T09:46:28.240Z,83.76
2019-02-07T09:47:28.221Z,84.07
2019-02-07T09:48:28.221Z,84.27
2019-02-07T09:49:28.236Z,83.86
2019-02-07T09:50:28.194Z,83.92
2019-02-07T09:51:28.301Z,83.62
2019-02-07T09:52:28.166Z,83.76
2019-02-07T09:53:28.165Z,84.27
2019-02-07T09:54:28.184Z,83.76
2019-02-07T09:55:28.131Z,83.72
2019-02-07T09:56:28.135Z,84.17
2019-02-07T09:57:28.113Z,83.92
2019-02-07T09:58:28.102Z,84.03
2019-02-07T09:59:28.118Z,83.20
2019-02-07T10:00:28.109Z,83.58
2019-02-07T10:01:28.065Z,82.24
2019-02-07T10:02:28.057Z,82.55
2019-02-07T10:03:28.052Z,83.41
2019-02-07T10:04:28.039Z,82.96
2019-02-07T10:05:28.047Z,83.27
2019-02-07T10:06:28.021Z,83.78
2019-02-07T10:07:28.009Z,83.17
2019-02-07T10:08:27.997Z,83.68
2019-02-07T10:09:27.981Z,82.55
2019-02-07T10:10:28.012Z,82.76
2019-02-07T10:11:27.955Z,82.10
2019-02-07T10:12:27.949Z,81.76
2019-02-07T10:13:27.943Z,79.46
2019-02-07T10:14:27.922Z,77.29
2019-02-07T10:15:27.914Z,75.52
2019-02-07T10:16:27.930Z,76.51
2019-02-07T10:17:27.887Z,75.35
2019-02-07T10:18:33.187Z,71.90
2019-02-07T10:19:28.868Z,72.99
2019-02-07T10:20:27.857Z,74.60
2019-02-07T10:21:27.882Z,75.96
2019-02-07T10:22:27.832Z,76.65
2019-02-07T10:23:27.821Z,77.10
2019-02-07T10:24:27.810Z,76.79
2019-02-07T10:25:27.816Z,77.51
2019-02-07T10:26:27.809Z,77.68
2019-02-07T10:27:27.782Z,71.22
2019-02-07T10:28:27.765Z,67.98
2019-02-07T10:29:27.760Z,65.98
2019-02-07T10:30:27.758Z,61.85
2019-02-07T10:31:27.777Z,60.16
2019-02-07T10:32:27.773Z,58.38
2019-02-07T10:33:27.717Z,57.06
2019-02-07T10:34:27.701Z,57.54
2019-02-07T10:35:27.694Z,60.51
2019-02-07T10:36:27.680Z,64.67
2019-02-07T10:37:27.710Z,67.49
2019-02-07T10:38:27.658Z,69.20
2019-02-07T10:39:27.641Z,69.64
2019-02-07T10:40:27.644Z,70.60
2019-02-07T10:41:27.643Z,70.56
2019-02-07T10:42:27.645Z,68.73
2019-02-07T10:43:27.597Z,70.22
2019-02-07T10:44:27.593Z,69.47
2019-02-07T10:45:27.576Z,70.73
2019-02-07T10:46:27.564Z,70.84
2019-02-07T10:47:30.378Z,71.80
2019-02-07T10:48:27.563Z,72.44
2019-02-07T10:49:27.532Z,73.36
2019-02-07T10:50:27.524Z,73.23
2019-02-07T10:51:27.521Z,73.23
2019-02-07T10:52:27.499Z,73.06
2019-02-07T10:53:27.524Z,73.36
2019-02-07T10:54:27.490Z,72.61
2019-02-07T10:55:27.483Z,70.91
2019-02-07T10:56:27.463Z,70.91
2019-02-07T10:57:27.451Z,68.32
2019-02-07T10:58:27.478Z,65.69
2019-02-07T10:59:27.428Z,65.28
2019-02-07T11:00:27.418Z,60.28
2019-02-07T11:01:27.406Z,56.81
2019-02-07T11:02:27.404Z,55.66
2019-02-07T11:03:27.422Z,53.47
2019-02-07T11:04:27.370Z,51.57
2019-02-07T11:05:27.362Z,53.80
2019-02-07T11:06:27.346Z,53.75
2019-02-07T11:07:27.353Z,51.97
2019-02-07T11:08:27.320Z,53.80
2019-02-07T11:09:27.341Z,55.91
2019-02-07T11:10:27.305Z,58.27
2019-02-07T11:11:27.287Z,57.73
2019-02-07T11:12:27.281Z,53.59
2019-02-07T11:13:27.270Z,51.89
2019-02-07T11:14:27.276Z,55.46
2019-02-07T11:15:27.249Z,57.17
2019-02-07T11:16:27.241Z,58.86
2019-02-07T11:17:27.223Z,60.75
2019-02-07T11:18:27.210Z,62.14
2019-02-07T11:19:27.240Z,59.72
2019-02-07T11:20:27.211Z,59.00
2019-02-07T11:21:27.191Z,55.48
2019-02-07T11:22:27.171Z,53.63
2019-02-07T11:23:27.157Z,53.83
2019-02-07T11:24:27.181Z,51.67
2019-02-07T11:25:27.167Z,54.11
2019-02-07T11:26:27.133Z,53.22
2019-02-07T11:27:27.125Z,51.28
2019-02-07T11:28:27.097Z,51.79
2019-02-07T11:29:27.119Z,51.75
2019-02-07T11:30:27.108Z,51.14
2019-02-07T11:31:27.076Z,53.88
2019-02-07T11:32:27.062Z,55.82
2019-02-07T11:33:27.050Z,55.63
2019-02-07T11:34:27.064Z,55.58
2019-02-07T11:35:27.052Z,56.68
2019-02-07T11:36:27.015Z,57.50
2019-02-07T11:37:27.002Z,57.12
2019-02-07T11:38:26.996Z,56.99
2019-02-07T11:39:29.686Z,56.92
2019-02-07T11:40:27.003Z,57.99
2019-02-07T11:41:26.963Z,56.96
2019-02-07T11:42:26.944Z,56.66
2019-02-07T11:43:26.930Z,56.99
2019-02-07T11:44:26.928Z,56.99
2019-02-07T11:45:26.935Z,56.10
2019-02-07T11:46:26.900Z,55.15
2019-02-07T11:47:26.892Z,53.90
2019-02-07T11:48:26.879Z,55.84
2019-02-07T11:49:26.867Z,57.09
2019-02-07T11:50:32.051Z,56.89
2019-02-07T11:51:26.845Z,56.76
2019-02-07T11:52:26.834Z,53.50
2019-02-07T11:53:26.819Z,51.03
2019-02-07T11:54:26.811Z,49.48
2019-02-07T11:55:27.520Z,51.16
2019-02-07T11:56:26.790Z,51.74
2019-02-07T11:57:26.776Z,53.77
2019-02-07T11:59:27.891Z,57.25
2019-02-07T12:00:26.746Z,57.25
2019-02-07T12:01:26.823Z,56.84
2019-02-07T12:02:26.730Z,55.74
2019-02-07T12:03:26.714Z,54.28
2019-02-07T12:04:26.713Z,53.67
2019-02-07T12:05:26.694Z,54.44
2019-02-07T12:06:26.703Z,52.07
2019-02-07T12:07:26.663Z,50.14
2019-02-07T12:08:26.654Z,50.74
2019-02-07T12:09:26.648Z,50.82
2019-02-07T12:10:26.639Z,51.25
2019-02-07T12:11:26.655Z,52.04
2019-02-07T12:12:26.609Z,51.74
2019-02-07T12:13:26.599Z,50.70
2019-02-07T12:14:26.593Z,50.70
2019-02-07T12:15:26.685Z,49.65
2019-02-07T12:16:26.623Z,49.90
2019-02-07T12:18:27.663Z,49.78
2019-02-07T12:19:26.535Z,51.35
2019-02-07T12:20:26.522Z,51.25
2019-02-07T12:21:26.547Z,52.32
2019-02-07T12:22:26.534Z,51.68
2019-02-07T12:23:26.491Z,49.02
2019-02-07T12:24:26.483Z,49.12
2019-02-07T12:25:26.490Z,49.35
2019-02-07T12:26:26.452Z,49.98
2019-02-07T12:27:26.472Z,51.46
2019-02-07T12:28:26.447Z,51.33
2019-02-07T12:29:26.420Z,53.03
2019-02-07T12:30:26.410Z,53.64
2019-02-07T12:31:26.398Z,52.22
2019-02-07T12:32:26.415Z,53.80
2019-02-07T12:33:26.377Z,55.18
2019-02-07T12:34:26.368Z,53.55
2019-02-07T12:35:26.356Z,51.94
2019-02-07T12:36:26.343Z,52.09
2019-02-07T12:37:26.356Z,51.68
2019-02-07T12:38:26.334Z,51.31
2019-02-07T12:39:26.311Z,49.73
2019-02-07T12:40:26.306Z,49.94
2019-02-07T12:41:26.289Z,50.06
2019-02-07T12:42:26.309Z,49.84
2019-02-07T12:43:26.266Z,49.84
2019-02-07T12:44:27.482Z,49.30
2019-02-07T12:45:26.240Z,49.63
2019-02-07T12:46:26.233Z,49.78
2019-02-07T12:47:26.269Z,51.97
2019-02-07T12:48:26.336Z,52.17
2019-02-07T12:49:29.378Z,52.09
2019-02-07T12:50:26.194Z,50.06
2019-02-07T12:51:26.193Z,49.22
2019-02-07T12:52:26.164Z,50.72
2019-02-07T12:53:26.197Z,50.09
2019-02-07T12:54:26.145Z,50.62